createdAt,value
2023-05-10T00:00:01.782Z,5.8
2023-05-10T00:05:01.176Z,5.2
2023-05-10T00:10:01.231Z,5.2
2023-05-10T00:15:02.695Z,5.2
2023-05-10T00:20:01.366Z,5.0
2023-05-10T00:25:01.251Z,4.7
2023-05-10T00:30:01.749Z,4.8
2023-05-10T00:35:01.179Z,5.4
2023-05-10T00:40:01.307Z,5.2
2023-05-10T00:45:01.784Z,4.6
2023-05-10T00:50:01.163Z,5.1
2023-05-10T00:55:01.175Z,5.0
2023-05-10T01:00:02.755Z,4.8
2023-05-10T01:05:01.248Z,5.1
2023-05-10T01:10:01.238Z,5.6
2023-05-10T01:15:01.939Z,5.4
2023-05-10T01:20:01.312Z,5.8
2023-05-10T01:25:01.237Z,5.6
2023-05-10T01:30:32.763Z,5.9
2023-05-10T01:36:01.263Z,5.2
2023-05-10T01:41:01.171Z,5.6
2023-05-10T01:46:01.168Z,5.4
2023-05-10T01:51:01.205Z,5.5
2023-05-10T01:56:01.250Z,5.2
2023-05-10T02:01:01.264Z,5.9
2023-05-10T02:06:01.298Z,5.6
2023-05-10T02:11:01.162Z,5.4
2023-05-10T02:16:01.252Z,5.3
2023-05-10T02:21:01.160Z,5.4
2023-05-10T02:26:01.199Z,5.1
2023-05-10T02:31:01.486Z,5.1
2023-05-10T02:36:01.273Z,5.5
2023-05-10T02:42:01.172Z,5.8
2023-05-10T02:52:01.300Z,6.0
2023-05-10T02:57:01.165Z,5.7
2023-05-10T03:02:01.190Z,5.6
2023-05-10T03:07:01.598Z,5.4
2023-05-10T03:12:01.327Z,5.5
2023-05-10T03:17:01.182Z,5.7
2023-05-10T03:22:01.707Z,5.6
2023-05-10T03:27:02.249Z,5.5
2023-05-10T03:32:01.393Z,5.4
2023-05-10T03:37:01.199Z,5.3
2023-05-10T03:48:01.383Z,5.4
2023-05-10T03:53:01.240Z,4.8
2023-05-10T03:58:01.160Z,5.0
2023-05-10T04:08:02.910Z,4.8
2023-05-10T04:13:01.295Z,5.0
2023-05-10T04:18:01.297Z,5.3
2023-05-10T04:23:01.221Z,5.6
2023-05-10T04:28:01.820Z,5.6
2023-05-10T04:33:01.873Z,5.6
2023-05-10T04:38:01.194Z,5.9
2023-05-10T04:43:01.188Z,5.9
2023-05-10T04:48:01.999Z,5.6
2023-05-10T04:53:01.200Z,5.6
2023-05-10T04:59:01.236Z,5.2
2023-05-10T05:04:02.138Z,4.5
2023-05-10T05:09:01.652Z,4.0
2023-05-10T05:14:02.296Z,3.9
2023-05-10T05:19:01.648Z,3.4
2023-05-10T05:24:01.765Z,3.8
2023-05-10T05:29:01.567Z,3.8
2023-05-10T05:34:01.567Z,4.1
2023-05-10T05:39:01.201Z,3.9
2023-05-10T05:44:01.688Z,4.3
2023-05-10T05:49:01.237Z,4.5
2023-05-10T05:54:01.555Z,5.1
2023-05-10T05:59:01.558Z,5.2
2023-05-10T06:04:02.671Z,5.2
2023-05-10T06:09:01.524Z,5.0
2023-05-10T06:14:01.173Z,4.5
2023-05-10T06:19:01.705Z,3.9
2023-05-10T06:24:03.560Z,4.0
2023-05-10T06:29:01.198Z,3.9
2023-05-10T06:34:01.211Z,3.7
2023-05-10T06:39:01.220Z,3.8
2023-05-10T06:44:01.652Z,3.9
2023-05-10T06:49:01.630Z,4.0
2023-05-10T06:54:01.170Z,4.1
2023-05-10T06:59:01.898Z,4.5
2023-05-10T07:09:01.301Z,4.8
2023-05-10T07:19:01.248Z,5.2
2023-05-10T07:24:01.633Z,5.5
2023-05-10T07:29:01.614Z,5.8
2023-05-10T07:34:01.261Z,5.3
2023-05-10T07:39:01.218Z,5.1
2023-05-10T07:44:01.347Z,4.6
2023-05-10T07:49:01.369Z,4.5
2023-05-10T07:54:01.219Z,4.4
2023-05-10T07:59:01.819Z,4.9
2023-05-10T08:04:01.503Z,5.4
2023-05-10T08:09:01.251Z,5.5
2023-05-10T08:14:01.196Z,5.3
2023-05-10T08:19:01.983Z,5.2
2023-05-10T08:24:01.690Z,5.0
2023-05-10T08:29:02.141Z,4.7
2023-05-10T08:44:01.176Z,4.8
2023-05-10T08:49:01.237Z,4.9
2023-05-10T08:54:02.777Z,5.2
2023-05-10T08:59:01.678Z,5.4
2023-05-10T09:04:01.298Z,5.5
2023-05-10T09:09:01.737Z,5.9
2023-05-10T09:14:01.276Z,5.1
2023-05-10T09:19:01.333Z,4.9
2023-05-10T09:24:01.159Z,4.7
2023-05-10T09:34:01.254Z,4.6
2023-05-10T09:39:01.178Z,5.3
2023-05-10T09:44:01.176Z,5.7
2023-05-10T09:49:01.252Z,5.5
2023-05-10T09:54:09.932Z,5.2
2023-05-10T10:09:01.242Z,5.0
2023-05-10T10:14:01.252Z,5.2
2023-05-10T10:19:01.313Z,5.4
2023-05-10T10:24:01.181Z,6.0
2023-05-10T10:29:13.994Z,6.2
2023-05-10T10:39:01.170Z,6.5
2023-05-10T10:49:09.594Z,6.3
2023-05-10T10:54:09.076Z,7.1
2023-05-10T10:59:01.157Z,7.5
2023-05-10T11:04:16.810Z,7.6
2023-05-10T11:09:10.195Z,7.7
2023-05-10T11:14:03.534Z,7.9
2023-05-10T11:19:01.326Z,7.0
2023-05-10T11:24:01.314Z,6.7
2023-05-10T11:29:01.163Z,7.0
2023-05-10T11:34:01.164Z,7.6
2023-05-10T11:39:01.174Z,7.4
2023-05-10T11:44:01.273Z,7.9
2023-05-10T11:49:01.163Z,8.8
2023-05-10T11:54:01.163Z,8.3
2023-05-10T11:59:01.671Z,7.7
2023-05-10T12:04:03.348Z,8.2
2023-05-10T12:14:01.239Z,7.7
2023-05-10T12:24:01.262Z,8.0
2023-05-10T12:29:01.213Z,7.3
2023-05-10T12:34:01.164Z,7.2
2023-05-10T12:39:01.225Z,6.9
2023-05-10T12:44:01.257Z,7.7
2023-05-10T12:49:09.955Z,7.9
2023-05-10T12:54:01.191Z,8.8
2023-05-10T13:05:01.362Z,8.9
2023-05-10T13:10:01.162Z,8.5
2023-05-10T13:15:02.306Z,8.2
2023-05-10T13:20:01.229Z,7.2
2023-05-10T13:25:01.251Z,7.0
2023-05-10T13:30:02.708Z,6.4
2023-05-10T13:35:01.178Z,5.6
2023-05-10T13:40:01.166Z,5.2
2023-05-10T13:45:01.671Z,5.1
2023-05-10T13:50:01.763Z,4.7
2023-05-10T13:55:01.287Z,4.5
2023-05-10T14:00:01.923Z,4.6
2023-05-10T14:05:01.266Z,4.9
2023-05-10T14:10:01.165Z,5.2
2023-05-10T14:15:01.689Z,5.2
2023-05-10T14:20:01.234Z,5.8
2023-05-10T14:25:01.269Z,5.7
2023-05-10T14:30:01.883Z,5.7
2023-05-10T14:35:01.261Z,5.5
2023-05-10T14:40:01.267Z,5.8
2023-05-10T14:45:01.782Z,5.6
2023-05-10T14:51:01.166Z,6.0
2023-05-10T14:56:01.256Z,6.1
2023-05-10T15:01:01.862Z,5.7
2023-05-10T15:06:01.222Z,5.5
2023-05-10T15:11:01.244Z,5.3
2023-05-10T15:16:01.474Z,4.6
2023-05-10T15:21:01.247Z,4.1
2023-05-10T15:31:01.251Z,4.0
2023-05-10T15:41:01.309Z,4.4
2023-05-10T15:46:01.229Z,4.2
2023-05-10T15:51:01.279Z,4.6
2023-05-10T15:56:01.538Z,4.5
2023-05-10T16:01:02.766Z,4.0
2023-05-10T16:06:01.219Z,3.6
2023-05-10T16:11:01.204Z,3.8
2023-05-10T16:16:01.269Z,3.6
2023-05-10T16:21:01.777Z,3.5
2023-05-10T16:26:01.224Z,3.7
2023-05-10T16:36:01.774Z,3.7
2023-05-10T16:41:01.731Z,3.3
2023-05-10T16:56:02.018Z,3.0
2023-05-10T17:01:01.250Z,2.6
2023-05-10T17:06:01.153Z,2.3
2023-05-10T17:11:02.121Z,1.7
2023-05-10T17:16:01.281Z,1.4
2023-05-10T17:21:01.262Z,2.0
2023-05-10T17:26:03.178Z,2.8
2023-05-10T17:31:01.607Z,3.5
2023-05-10T17:36:01.159Z,3.7
2023-05-10T17:41:01.390Z,4.1
2023-05-10T17:46:01.304Z,3.6
2023-05-10T17:51:01.171Z,3.2
2023-05-10T17:56:01.551Z,2.6
2023-05-10T18:01:01.326Z,2.8
2023-05-10T18:07:01.752Z,2.6
2023-05-10T18:12:01.149Z,2.4
2023-05-10T18:22:01.548Z,2.7
2023-05-10T18:27:01.386Z,3.1
2023-05-10T18:32:01.223Z,3.5
2023-05-10T18:37:01.179Z,4.0
2023-05-10T18:47:01.274Z,3.6
2023-05-10T18:52:01.300Z,3.4
2023-05-10T19:02:01.437Z,3.6
2023-05-10T19:07:01.291Z,3.6
2023-05-10T19:12:02.007Z,3.9
2023-05-10T19:17:01.226Z,4.1
2023-05-10T19:22:03.904Z,4.0
2023-05-10T19:27:02.237Z,3.8
2023-05-10T19:32:01.352Z,3.7
2023-05-10T19:37:01.171Z,3.7
2023-05-10T19:42:01.325Z,3.8
2023-05-10T19:47:01.256Z,3.9
2023-05-10T19:52:01.224Z,4.0
2023-05-10T19:57:01.152Z,4.2
2023-05-10T20:02:01.749Z,3.8
2023-05-10T20:07:01.381Z,3.6
2023-05-10T20:12:01.168Z,3.4
2023-05-10T20:17:01.328Z,3.5
2023-05-10T20:27:01.777Z,3.8
2023-05-10T20:32:01.764Z,4.3
2023-05-10T20:37:01.228Z,4.4
2023-05-10T20:42:01.154Z,4.2
2023-05-10T20:47:01.371Z,4.9
2023-05-10T20:52:02.602Z,4.9
2023-05-10T20:57:01.161Z,4.7
2023-05-10T21:02:01.479Z,5.1
2023-05-10T21:07:01.261Z,5.8
2023-05-10T21:12:01.169Z,6.0
2023-05-10T21:17:01.640Z,6.5
2023-05-10T21:22:01.167Z,7.2
2023-05-10T21:27:01.254Z,7.6
2023-05-10T21:32:01.335Z,7.4
2023-05-10T21:37:01.200Z,7.2
2023-05-10T21:42:01.167Z,6.5
2023-05-10T21:47:01.258Z,5.9
2023-05-10T21:52:01.692Z,5.2
2023-05-10T21:57:01.151Z,5.0
2023-05-10T22:02:01.301Z,4.5
2023-05-10T22:07:01.249Z,5.1
2023-05-10T22:12:01.753Z,4.9
2023-05-10T22:17:01.260Z,5.2
2023-05-10T22:22:02.106Z,5.1
2023-05-10T22:27:01.268Z,5.5
2023-05-10T22:37:01.166Z,5.6
2023-05-10T22:42:01.197Z,6.4
2023-05-10T22:47:01.252Z,7.1
2023-05-10T22:52:01.771Z,6.8
2023-05-10T22:57:01.165Z,7.8
2023-05-10T23:02:01.242Z,7.8
2023-05-10T23:07:01.696Z,7.0
2023-05-10T23:12:01.150Z,6.2
2023-05-10T23:17:01.190Z,6.3
2023-05-10T23:22:01.533Z,6.2
2023-05-10T23:27:01.353Z,7.0
2023-05-10T23:32:01.344Z,7.7
2023-05-10T23:37:01.736Z,8.1
2023-05-10T23:42:01.362Z,9.3
2023-05-10T23:47:01.301Z,9.2
2023-05-10T23:57:01.187Z,9.0
